Accueil
METAR-TAF:

METAR-TAF

Aéroports :

Aéroport international de Wattay

Vientiane, Laos

latitude: 17-57N, longitude: 102-34E, altitude: 171 m

Observation

Le bulletin a été fait il y a 37 minutes, à 11:00 UTC
Vent 6 kt de est/sud-est
Température 33°C
Humidité 49%
Pression 1009 hPa
Visibilité: 6000 m

METAR: VLVT 041100Z 12006KT 6000 NSC 33/21 Q1009 NOSIG

Heure: 18:37 (11:37 UTC)

Prévision

Le bulletin a été fait il y a 6 heures et 37 minutes, à 05:00 UTC
Prévision valable du 04 à 06 UTC au 05 à 06 UTC
Vent 4 kt de est/sud-est
Visibilité: 7000 m
Quelques nuages à une hauteur de 2000 ft
Nuages épars à une hauteur de 5000 ft

TAF: VLVT 040500Z 0406/0506 12004KT 7000 FEW020 SCT050

Observations et prévisions météorologiques de plus de 4000 aéroports (messages METAR et TAF).

Les stations disponibles sont représentées par des disques jaunes et rouges sur la carte.

Passer la souris dessus pour voir le nom de la station.

Cliquer dessus pour voir les observations et prévisions météorologiques.

Pour changer de carte: cliquez sur les boutons verts avec une croix noire pour zoomer, sur le bouton vert avec un tiret pour effectuer un zoom arrière, ou sur les flèches vertes pour les cartes adjacentes.


METAR-TAF: